createdAt,value
2023-03-11T00:02:03.232Z,21.33
2023-03-11T00:05:06.932Z,18.27
2023-03-11T00:08:13.191Z,18.47
2023-03-11T00:11:17.502Z,17.67
2023-03-11T00:14:20.703Z,16.97
2023-03-11T00:17:23.698Z,20.33
2023-03-11T00:20:29.193Z,19.47
2023-03-11T00:23:32.626Z,19.53
2023-03-11T00:26:37.194Z,17.40
2023-03-11T00:29:40.277Z,17.13
2023-03-11T00:32:48.163Z,16.33
2023-03-11T00:35:51.992Z,16.70
2023-03-11T00:38:55.203Z,16.63
2023-03-11T00:41:59.898Z,15.93
2023-03-11T00:45:02.966Z,14.13
2023-03-11T00:48:07.736Z,15.70
2023-03-11T00:51:14.527Z,15.17
2023-03-11T00:54:17.522Z,14.87
2023-03-11T00:57:23.611Z,15.07
2023-03-11T01:00:28.828Z,14.60
2023-03-11T01:03:32.237Z,17.77
2023-03-11T01:06:44.837Z,17.87
2023-03-11T01:09:48.779Z,17.43
2023-03-11T01:12:55.999Z,17.47
2023-03-11T01:16:01.036Z,18.97
2023-03-11T01:19:04.110Z,19.00
2023-03-11T01:22:07.197Z,21.57
2023-03-11T01:25:13.685Z,18.50
2023-03-11T01:28:18.320Z,21.10
2023-03-11T01:31:21.417Z,19.03
2023-03-11T01:34:24.680Z,19.77
2023-03-11T01:37:27.749Z,19.43
2023-03-11T01:40:33.541Z,18.47
2023-03-11T01:43:53.764Z,18.57
2023-03-11T01:47:33.014Z,16.00
2023-03-11T01:50:38.520Z,14.03
2023-03-11T01:53:41.995Z,13.60
2023-03-11T01:56:46.468Z,13.60
2023-03-11T01:59:54.318Z,11.83
2023-03-11T02:02:59.888Z,10.50
2023-03-11T02:06:06.924Z,8.63
2023-03-11T02:09:10.004Z,7.57
2023-03-11T02:12:15.749Z,8.17
2023-03-11T02:15:20.514Z,6.60
2023-03-11T02:18:25.711Z,5.83
2023-03-11T02:21:33.970Z,5.33
2023-03-11T02:24:44.654Z,5.17
2023-03-11T02:27:52.050Z,4.80
2023-03-11T02:30:57.078Z,5.00
2023-03-11T02:34:02.910Z,4.90
2023-03-11T02:37:07.736Z,4.93
2023-03-11T02:40:39.449Z,4.53
2023-03-11T02:43:47.002Z,4.97
2023-03-11T02:46:50.377Z,5.27
2023-03-11T02:49:57.712Z,5.13
2023-03-11T02:53:00.892Z,5.50
2023-03-11T02:56:04.056Z,4.90
2023-03-11T02:59:08.591Z,4.80
2023-03-11T03:02:11.593Z,4.77
2023-03-11T03:05:15.049Z,5.00
2023-03-11T03:08:18.064Z,5.80
2023-03-11T03:11:21.267Z,5.63
2023-03-11T03:14:25.618Z,5.50
2023-03-11T03:17:28.876Z,5.90
2023-03-11T03:20:32.164Z,5.93
2023-03-11T03:23:37.702Z,6.33
2023-03-11T03:26:42.836Z,6.00
2023-03-11T03:29:50.383Z,6.10
2023-03-11T03:32:53.528Z,6.07
2023-03-11T03:35:59.082Z,6.07
2023-03-11T03:39:04.598Z,7.00
2023-03-11T03:42:08.649Z,6.83
2023-03-11T03:45:13.679Z,7.97
2023-03-11T03:48:18.141Z,6.77
2023-03-11T03:51:21.228Z,6.43
2023-03-11T03:54:24.220Z,6.67
2023-03-11T03:57:27.294Z,7.10
2023-03-11T04:00:35.611Z,7.23
2023-03-11T04:03:39.513Z,7.50
2023-03-11T04:06:44.093Z,8.00
2023-03-11T04:09:47.116Z,7.00
2023-03-11T04:12:50.392Z,6.83
2023-03-11T04:15:54.924Z,7.23
2023-03-11T04:18:58.125Z,6.93
2023-03-11T04:22:01.196Z,6.70
2023-03-11T04:25:04.492Z,7.70
2023-03-11T04:28:07.585Z,7.97
2023-03-11T04:31:13.865Z,7.17
2023-03-11T04:34:17.038Z,6.90
2023-03-11T04:37:20.175Z,6.57
2023-03-11T04:40:23.446Z,7.40
2023-03-11T04:43:26.557Z,6.40
2023-03-11T04:46:33.139Z,7.00
2023-03-11T04:49:36.266Z,6.37
2023-03-11T04:52:39.326Z,6.53
2023-03-11T04:55:42.548Z,6.90
2023-03-11T04:58:45.570Z,6.70
2023-03-11T05:01:49.942Z,6.50
2023-03-11T05:04:53.031Z,6.23
2023-03-11T05:07:58.773Z,6.83
2023-03-11T05:11:01.852Z,6.67
2023-03-11T05:14:04.860Z,5.70
2023-03-11T05:17:10.067Z,5.87
2023-03-11T05:20:15.540Z,6.80
2023-03-11T05:23:20.685Z,5.83
2023-03-11T05:26:23.633Z,6.03
2023-03-11T05:29:26.754Z,5.60
2023-03-11T05:32:31.173Z,6.10
2023-03-11T05:35:34.919Z,6.30
2023-03-11T05:38:38.442Z,5.70
2023-03-11T05:41:41.941Z,5.97
2023-03-11T05:44:47.710Z,6.17
2023-03-11T05:47:53.067Z,5.97
2023-03-11T05:50:56.133Z,5.97
2023-03-11T05:53:59.115Z,6.57
2023-03-11T05:57:02.312Z,6.23
2023-03-11T06:00:07.166Z,6.80
2023-03-11T06:03:11.530Z,7.37
2023-03-11T06:06:15.760Z,7.40
2023-03-11T06:09:18.738Z,6.87
2023-03-11T06:12:21.817Z,7.10
2023-03-11T06:15:27.315Z,7.13
2023-03-11T06:18:32.102Z,7.20
2023-03-11T06:21:35.149Z,7.00
2023-03-11T06:24:38.372Z,6.87
2023-03-11T06:27:41.299Z,7.33
2023-03-11T06:30:44.321Z,7.23
2023-03-11T06:33:49.276Z,7.83
2023-03-11T06:36:52.255Z,7.60
2023-03-11T06:39:55.443Z,7.63
2023-03-11T06:42:58.497Z,8.80
2023-03-11T06:46:01.629Z,8.50
2023-03-11T06:49:06.458Z,8.40
2023-03-11T06:52:09.690Z,8.60
2023-03-11T06:55:12.683Z,8.13
2023-03-11T06:58:15.658Z,8.30
2023-03-11T07:01:20.343Z,8.63
2023-03-11T07:04:24.770Z,8.77
2023-03-11T07:07:27.789Z,9.47
2023-03-11T07:10:30.794Z,9.50
2023-03-11T07:13:33.974Z,8.67
2023-03-11T07:16:39.724Z,8.47
2023-03-11T07:19:44.095Z,8.20
2023-03-11T07:22:47.352Z,7.57
2023-03-11T07:25:51.810Z,8.50
2023-03-11T07:28:56.472Z,7.63
2023-03-11T07:31:59.524Z,8.27
2023-03-11T07:35:04.552Z,8.47
2023-03-11T07:38:07.545Z,8.60
2023-03-11T07:41:12.176Z,7.90
2023-03-11T07:44:18.265Z,7.97
2023-03-11T07:47:21.300Z,8.47
2023-03-11T07:50:26.048Z,8.83
2023-03-11T07:53:29.086Z,8.10
2023-03-11T07:56:34.037Z,8.70
2023-03-11T07:59:37.221Z,7.70
2023-03-11T08:02:42.845Z,8.63
2023-03-11T08:05:47.334Z,8.53
2023-03-11T08:08:51.478Z,8.37
2023-03-11T08:11:54.561Z,9.00
2023-03-11T08:14:57.775Z,8.97
2023-03-11T08:18:00.812Z,8.63
2023-03-11T08:21:07.503Z,8.27
2023-03-11T08:24:12.863Z,8.30
2023-03-11T08:27:15.836Z,8.70
2023-03-11T08:30:19.500Z,8.73
2023-03-11T08:33:22.483Z,9.00
2023-03-11T08:36:26.955Z,7.67
2023-03-11T08:39:29.902Z,7.70
2023-03-11T08:42:37.191Z,8.90
2023-03-11T08:45:41.656Z,8.47
2023-03-11T08:48:44.701Z,8.13
2023-03-11T08:51:49.158Z,8.17
2023-03-11T08:54:52.318Z,8.67
2023-03-11T08:57:55.799Z,8.67
2023-03-11T09:00:58.828Z,9.17
2023-03-11T09:04:02.005Z,7.90
2023-03-11T09:07:06.416Z,7.77
2023-03-11T09:10:12.190Z,8.37
2023-03-11T09:13:15.172Z,8.17
2023-03-11T09:16:20.776Z,7.97
2023-03-11T09:19:23.824Z,7.77
2023-03-11T09:22:29.058Z,8.10
2023-03-11T09:25:32.143Z,7.37
2023-03-11T09:28:35.196Z,8.03
2023-03-11T09:31:39.580Z,8.03
2023-03-11T09:34:42.730Z,7.70
2023-03-11T09:37:47.073Z,7.63
2023-03-11T09:41:01.509Z,7.57
2023-03-11T09:44:16.573Z,7.67
2023-03-11T09:47:39.523Z,8.00
2023-03-11T09:50:48.739Z,9.37
2023-03-11T09:54:00.708Z,8.37
2023-03-11T09:57:05.408Z,8.03
2023-03-11T10:00:12.177Z,7.90
2023-03-11T10:03:27.737Z,7.93
2023-03-11T10:06:31.902Z,9.10
2023-03-11T10:09:40.046Z,8.17
2023-03-11T10:12:50.744Z,8.47
2023-03-11T10:16:00.246Z,8.60
2023-03-11T10:19:12.482Z,8.03
2023-03-11T10:22:23.523Z,8.57
2023-03-11T10:25:31.673Z,8.17
2023-03-11T10:28:37.908Z,8.47
2023-03-11T10:31:45.056Z,8.97
2023-03-11T10:34:53.521Z,9.67
2023-03-11T10:38:01.968Z,9.03
2023-03-11T10:41:15.426Z,9.20
2023-03-11T10:44:23.845Z,8.57
2023-03-11T10:47:27.101Z,8.33
2023-03-11T10:50:36.616Z,8.83
2023-03-11T10:53:48.111Z,9.07
2023-03-11T10:56:57.083Z,8.90
2023-03-11T11:00:01.292Z,8.03
2023-03-11T11:03:06.696Z,8.33
2023-03-11T11:06:21.830Z,8.53
2023-03-11T11:09:26.941Z,9.33
2023-03-11T11:12:31.497Z,10.13
2023-03-11T11:15:36.573Z,10.57
2023-03-11T11:18:49.212Z,10.53
2023-03-11T11:21:53.142Z,11.70
2023-03-11T11:24:58.549Z,10.53
2023-03-11T11:28:05.916Z,10.20
2023-03-11T11:31:23.029Z,10.27
2023-03-11T11:34:30.874Z,10.00
2023-03-11T11:37:36.110Z,10.23
2023-03-11T11:40:39.067Z,10.73
2023-03-11T11:43:50.765Z,10.70
2023-03-11T11:46:58.828Z,10.30
2023-03-11T11:50:05.045Z,10.43
2023-03-11T11:53:22.703Z,10.83
2023-03-11T11:56:28.874Z,11.10
2023-03-11T11:59:33.320Z,11.43
2023-03-11T12:02:49.957Z,10.53
2023-03-11T12:05:58.456Z,10.73
2023-03-11T12:09:14.716Z,10.00
2023-03-11T12:12:25.172Z,10.30
2023-03-11T12:15:33.085Z,9.67
2023-03-11T12:18:40.715Z,9.73
2023-03-11T12:22:11.671Z,10.40
2023-03-11T12:25:25.278Z,11.50
2023-03-11T12:28:39.444Z,10.23
2023-03-11T12:31:45.114Z,10.60
2023-03-11T12:34:48.959Z,11.47
2023-03-11T12:38:05.569Z,10.93
2023-03-11T12:41:09.808Z,10.33
2023-03-11T12:44:33.890Z,9.87
2023-03-11T12:47:38.293Z,9.90
2023-03-11T12:50:44.613Z,9.47
2023-03-11T12:53:50.679Z,11.30
2023-03-11T12:56:56.975Z,10.50
2023-03-11T13:00:24.658Z,10.33
2023-03-11T13:03:46.119Z,9.80
2023-03-11T13:07:31.997Z,9.23
2023-03-11T13:10:38.940Z,10.90
2023-03-11T13:13:42.207Z,9.80
2023-03-11T13:16:46.490Z,11.70
2023-03-11T13:19:53.206Z,10.10
2023-03-11T13:23:27.642Z,11.07
2023-03-11T13:26:37.046Z,10.37
2023-03-11T13:29:59.212Z,10.07
2023-03-11T13:33:45.418Z,8.50
2023-03-11T13:37:07.193Z,9.23
2023-03-11T13:40:24.736Z,10.00
2023-03-11T13:43:27.725Z,9.30
2023-03-11T13:46:38.350Z,9.17
2023-03-11T13:49:45.442Z,9.50
2023-03-11T13:52:53.518Z,8.50
2023-03-11T13:55:56.821Z,8.47
2023-03-11T13:59:17.965Z,8.20
2023-03-11T14:02:23.478Z,8.43
2023-03-11T14:05:28.707Z,7.33
2023-03-11T14:08:35.508Z,8.33
2023-03-11T14:11:40.064Z,7.70
2023-03-11T14:14:49.347Z,7.43
2023-03-11T14:17:53.183Z,7.63
2023-03-11T14:20:56.926Z,7.60
2023-03-11T14:24:01.574Z,7.70
2023-03-11T14:27:13.271Z,7.60
2023-03-11T14:30:22.326Z,8.23
2023-03-11T14:33:26.214Z,7.57
2023-03-11T14:36:29.377Z,8.70
2023-03-11T14:39:36.121Z,7.53
2023-03-11T14:42:41.364Z,8.93
2023-03-11T14:45:45.065Z,12.40
2023-03-11T14:48:49.211Z,7.63
2023-03-11T14:52:02.024Z,8.27
2023-03-11T14:55:12.930Z,7.40
2023-03-11T14:58:23.808Z,7.40
2023-03-11T15:01:30.540Z,7.00
2023-03-11T15:04:37.899Z,6.67
2023-03-11T15:07:41.154Z,6.47
2023-03-11T15:11:04.144Z,6.40
2023-03-11T15:14:23.949Z,6.63
2023-03-11T15:17:42.864Z,6.70
2023-03-11T15:20:47.895Z,6.40
2023-03-11T15:23:52.286Z,7.20
2023-03-11T15:26:59.204Z,6.97
2023-03-11T15:30:04.977Z,10.30
2023-03-11T15:33:22.070Z,9.57
2023-03-11T15:36:33.959Z,6.70
2023-03-11T15:39:46.256Z,6.33
2023-03-11T15:43:08.320Z,5.23
2023-03-11T15:46:12.387Z,6.47
2023-03-11T15:49:15.411Z,6.13
2023-03-11T15:52:20.274Z,5.87
2023-03-11T15:55:23.557Z,6.13
2023-03-11T15:58:29.025Z,6.13
2023-03-11T16:01:31.996Z,7.20
2023-03-11T16:04:35.132Z,8.90
2023-03-11T16:07:40.111Z,5.43
2023-03-11T16:10:44.026Z,6.90
2023-03-11T16:13:48.353Z,4.80
2023-03-11T16:16:51.342Z,4.80
2023-03-11T16:19:54.360Z,5.20
2023-03-11T16:22:59.753Z,4.43
2023-03-11T16:26:04.617Z,5.03
2023-03-11T16:29:18.964Z,4.83
2023-03-11T16:32:22.919Z,5.03
2023-03-11T16:35:26.537Z,5.13
2023-03-11T16:38:30.136Z,5.00
2023-03-11T16:41:42.123Z,5.20
2023-03-11T16:44:47.724Z,4.77
2023-03-11T16:47:50.786Z,5.20
2023-03-11T16:50:53.729Z,6.33
2023-03-11T16:53:56.854Z,4.83
2023-03-11T16:57:02.100Z,5.30
2023-03-11T17:00:09.785Z,6.83
2023-03-11T17:03:13.684Z,5.57
2023-03-11T17:06:17.751Z,5.73
2023-03-11T17:09:23.433Z,5.77
2023-03-11T17:12:26.807Z,5.40
2023-03-11T17:15:32.077Z,5.37
2023-03-11T17:18:35.284Z,5.30
2023-03-11T17:21:38.261Z,6.17
2023-03-11T17:24:41.455Z,7.37
2023-03-11T17:27:44.480Z,5.33
2023-03-11T17:30:48.836Z,5.70
2023-03-11T17:33:51.825Z,7.27
2023-03-11T17:36:57.859Z,6.13
2023-03-11T17:40:00.870Z,6.53
2023-03-11T17:43:04.034Z,5.60
2023-03-11T17:46:10.892Z,6.00
2023-03-11T17:49:15.540Z,5.23
2023-03-11T17:52:18.642Z,5.83
2023-03-11T17:55:21.621Z,5.23
2023-03-11T17:58:24.993Z,6.07
2023-03-11T18:01:30.053Z,5.90
2023-03-11T18:04:33.111Z,6.00
2023-03-11T18:07:38.976Z,9.30
2023-03-11T18:10:41.976Z,5.83
2023-03-11T18:13:45.023Z,5.43
2023-03-11T18:16:49.487Z,5.40
2023-03-11T18:19:52.423Z,5.17
2023-03-11T18:22:56.027Z,5.53
2023-03-11T18:25:59.123Z,5.37
2023-03-11T18:29:02.593Z,6.00
2023-03-11T18:32:07.523Z,5.90
2023-03-11T18:35:11.190Z,6.50
2023-03-11T18:38:14.246Z,5.27
2023-03-11T18:41:17.474Z,5.50
2023-03-11T18:44:21.086Z,5.13
2023-03-11T18:47:25.573Z,5.10
2023-03-11T18:50:29.916Z,5.17
2023-03-11T18:53:32.965Z,5.80
2023-03-11T18:56:36.405Z,5.50
2023-03-11T18:59:39.394Z,7.90
2023-03-11T19:02:43.777Z,5.17
2023-03-11T19:05:50.619Z,5.43
2023-03-11T19:08:54.724Z,5.00
2023-03-11T19:11:57.718Z,5.10
2023-03-11T19:15:00.756Z,9.73
2023-03-11T19:18:07.292Z,5.40
2023-03-11T19:21:13.422Z,5.03
2023-03-11T19:24:16.514Z,5.47
2023-03-11T19:27:19.600Z,5.47
2023-03-11T19:30:23.056Z,4.97
2023-03-11T19:33:28.487Z,4.77
2023-03-11T19:36:31.482Z,5.20
2023-03-11T19:39:34.668Z,4.63
2023-03-11T19:42:37.992Z,5.40
2023-03-11T19:45:40.974Z,5.57
2023-03-11T19:48:45.362Z,5.50
2023-03-11T19:51:50.575Z,4.87
2023-03-11T19:54:54.085Z,7.07
2023-03-11T19:57:57.097Z,5.67
2023-03-11T20:01:00.669Z,5.17
2023-03-11T20:04:05.559Z,5.20
2023-03-11T20:07:08.874Z,5.40
2023-03-11T20:10:17.454Z,4.80
2023-03-11T20:13:22.893Z,5.17
2023-03-11T20:16:26.135Z,4.83
2023-03-11T20:19:30.636Z,5.87
2023-03-11T20:22:33.909Z,5.20
2023-03-11T20:25:39.120Z,4.90
2023-03-11T20:28:42.596Z,7.23
2023-03-11T20:31:45.810Z,5.00
2023-03-11T20:34:50.272Z,4.77
2023-03-11T20:37:53.405Z,4.87
2023-03-11T20:40:56.821Z,4.60
2023-03-11T20:43:59.944Z,4.47
2023-03-11T20:47:03.122Z,4.60
2023-03-11T20:50:08.711Z,4.53
2023-03-11T20:53:11.810Z,5.97
2023-03-11T20:56:16.903Z,5.50
2023-03-11T20:59:19.973Z,4.87
2023-03-11T21:02:23.206Z,5.10
2023-03-11T21:05:28.191Z,5.27
2023-03-11T21:08:31.244Z,5.13
2023-03-11T21:11:35.212Z,4.77
2023-03-11T21:14:38.775Z,4.60
2023-03-11T21:17:41.804Z,4.33
2023-03-11T21:20:46.246Z,5.33
2023-03-11T21:23:52.179Z,4.67
2023-03-11T21:26:55.264Z,8.67
2023-03-11T21:29:59.506Z,4.37
2023-03-11T21:33:02.698Z,5.30
2023-03-11T21:36:09.174Z,6.20
2023-03-11T21:39:12.301Z,4.67
2023-03-11T21:42:15.647Z,4.07
2023-03-11T21:45:19.615Z,5.27
2023-03-11T21:48:22.783Z,4.07
2023-03-11T21:51:27.886Z,4.37
2023-03-11T21:54:30.953Z,4.73
2023-03-11T21:57:36.805Z,3.97
2023-03-11T22:00:40.043Z,5.13
2023-03-11T22:03:43.799Z,4.33
2023-03-11T22:06:48.501Z,4.80
2023-03-11T22:09:51.944Z,4.20
2023-03-11T22:12:55.104Z,4.70
2023-03-11T22:15:58.141Z,3.73
2023-03-11T22:19:01.182Z,4.20
2023-03-11T22:22:05.739Z,4.23
2023-03-11T22:25:09.844Z,4.20
2023-03-11T22:28:13.288Z,4.27
2023-03-11T22:31:18.499Z,4.20
2023-03-11T22:34:23.009Z,6.87
2023-03-11T22:37:27.514Z,4.10
2023-03-11T22:40:30.470Z,4.87
2023-03-11T22:43:33.466Z,4.00
2023-03-11T22:46:36.531Z,4.57
2023-03-11T22:49:39.470Z,4.23
2023-03-11T22:52:43.938Z,4.27
2023-03-11T22:55:46.940Z,5.23
2023-03-11T22:58:49.943Z,4.27
2023-03-11T23:01:52.903Z,4.40
2023-03-11T23:04:55.879Z,4.73
2023-03-11T23:08:00.310Z,5.40
2023-03-11T23:11:04.758Z,4.23
2023-03-11T23:14:08.068Z,4.40
2023-03-11T23:17:11.136Z,3.97
2023-03-11T23:20:15.841Z,4.47
2023-03-11T23:23:20.279Z,4.77
2023-03-11T23:26:23.984Z,4.37
2023-03-11T23:29:27.396Z,5.77
2023-03-11T23:32:30.354Z,4.43
2023-03-11T23:35:34.107Z,6.10
2023-03-11T23:38:39.082Z,4.10
2023-03-11T23:41:42.241Z,4.70
2023-03-11T23:44:45.317Z,3.80
2023-03-11T23:47:48.492Z,4.10
2023-03-11T23:50:52.464Z,6.00
2023-03-11T23:53:56.961Z,5.27
2023-03-11T23:57:00.108Z,5.03
